Terminal Aerodrome Forecast
Issued by NWS

Home | Current Version | Previous Version | Text Only | Print | Product List | Glossary On
Versions: 1 2 3 4 5 6 7 8 9 10 11 12 13 14
000
FTUS42 KMLB 062323
TAFISM
TAF
KISM 062323Z 0700/0724 01012KT P6SM OVC009
     FM070200 01013G19KT P6SM OVC008
     FM070600 36013KT P6SM OVC006
     FM071400 03012KT P6SM FEW008 OVC020
     FM072000 05012KT P6SM SCT020 BKN030=

USA.gov is the U.S. government's official web portal to all federal, state and local government web resources and services.